createdAt,value
2019-03-10T00:00:57.815Z,16.77
2019-03-10T00:03:25.764Z,16.40
2019-03-10T00:05:53.673Z,13.87
2019-03-10T00:08:21.596Z,18.00
2019-03-10T00:10:49.563Z,14.03
2019-03-10T00:13:17.457Z,21.00
2019-03-10T00:15:45.458Z,17.27
2019-03-10T00:18:13.462Z,15.27
2019-03-10T00:20:41.456Z,21.73
2019-03-10T00:23:09.428Z,19.00
2019-03-10T00:25:37.385Z,15.23
2019-03-10T00:28:06.445Z,14.80
2019-03-10T00:30:34.377Z,20.20
2019-03-10T00:33:02.404Z,15.63
2019-03-10T00:35:30.326Z,13.40
2019-03-10T00:37:58.272Z,16.90
2019-03-10T00:40:40.538Z,20.43
2019-03-10T00:43:32.830Z,16.73
2019-03-10T00:46:10.116Z,18.30
2019-03-10T00:48:56.045Z,14.00
2019-03-10T00:51:34.533Z,17.00
2019-03-10T00:54:02.570Z,14.10
2019-03-10T00:56:30.536Z,20.53
2019-03-10T00:58:58.473Z,18.87
2019-03-10T01:01:26.394Z,22.97
2019-03-10T01:03:54.520Z,17.83
2019-03-10T01:06:22.751Z,18.50
2019-03-10T01:08:50.676Z,18.83
2019-03-10T01:11:18.668Z,15.33
2019-03-10T01:13:46.633Z,16.97
2019-03-10T01:16:14.806Z,19.43
2019-03-10T01:18:43.874Z,11.73
2019-03-10T01:21:12.484Z,14.57
2019-03-10T01:23:42.737Z,19.13
2019-03-10T01:26:10.119Z,15.57
2019-03-10T01:28:38.059Z,12.50
2019-03-10T01:31:10.464Z,13.97
2019-03-10T01:33:57.530Z,13.13
2019-03-10T01:36:24.628Z,18.80
2019-03-10T01:38:52.543Z,20.67
2019-03-10T01:41:20.590Z,17.47
2019-03-10T01:43:48.525Z,13.97
2019-03-10T01:46:16.480Z,15.50
2019-03-10T01:48:44.449Z,14.67
2019-03-10T01:51:12.370Z,17.40
2019-03-10T01:53:40.285Z,14.60
2019-03-10T01:56:08.323Z,15.87
2019-03-10T01:58:36.325Z,16.20
2019-03-10T02:01:04.264Z,19.47
2019-03-10T02:03:32.401Z,17.30
2019-03-10T02:06:00.319Z,17.30
2019-03-10T02:08:28.338Z,23.00
2019-03-10T02:10:56.299Z,20.43
2019-03-10T02:13:24.229Z,18.33
2019-03-10T02:15:52.184Z,21.17
2019-03-10T02:18:20.132Z,23.13
2019-03-10T02:20:48.071Z,23.10
2019-03-10T02:23:15.985Z,31.97
2019-03-10T02:25:43.941Z,28.17
2019-03-10T02:28:11.881Z,30.27
2019-03-10T02:30:40.489Z,24.53
2019-03-10T02:33:08.426Z,21.80
2019-03-10T02:35:36.361Z,21.73
2019-03-10T02:38:04.663Z,28.07
2019-03-10T02:40:32.645Z,27.23
2019-03-10T02:43:01.033Z,28.97
2019-03-10T02:45:29.092Z,27.83
2019-03-10T02:47:57.088Z,30.60
2019-03-10T02:50:25.011Z,33.97
2019-03-10T02:52:52.928Z,32.53
2019-03-10T02:55:21.082Z,25.90
2019-03-10T02:57:49.055Z,30.23
2019-03-10T03:00:17.144Z,40.50
2019-03-10T03:02:45.180Z,38.77
2019-03-10T03:05:13.215Z,37.30
2019-03-10T03:07:41.283Z,27.70
2019-03-10T03:10:10.304Z,24.80
2019-03-10T03:12:38.228Z,26.93
2019-03-10T03:15:06.197Z,22.30
2019-03-10T03:17:34.343Z,25.57
2019-03-10T03:20:02.285Z,29.20
2019-03-10T03:22:30.235Z,23.10
2019-03-10T03:24:58.209Z,21.63
2019-03-10T03:27:26.151Z,22.70
2019-03-10T03:29:54.094Z,25.20
2019-03-10T03:32:22.064Z,19.07
2019-03-10T03:34:50.082Z,20.13
2019-03-10T03:37:19.562Z,30.33
2019-03-10T03:39:48.662Z,25.60
2019-03-10T03:42:16.968Z,21.33
2019-03-10T03:44:45.278Z,21.23
2019-03-10T03:47:13.324Z,15.93
2019-03-10T03:49:41.276Z,20.67
2019-03-10T03:52:09.192Z,18.90
2019-03-10T03:54:37.138Z,27.87
2019-03-10T03:57:05.166Z,25.20
2019-03-10T03:59:33.120Z,23.10
2019-03-10T04:02:05.964Z,28.63
2019-03-10T04:04:33.912Z,26.10
2019-03-10T04:07:01.825Z,23.67
2019-03-10T04:09:29.728Z,19.33
2019-03-10T04:11:57.647Z,21.40
2019-03-10T04:14:25.613Z,28.40
2019-03-10T04:16:53.554Z,20.37
2019-03-10T04:19:21.601Z,21.23
2019-03-10T04:21:49.585Z,21.73
2019-03-10T04:24:17.566Z,23.03
2019-03-10T04:26:45.570Z,20.23
2019-03-10T04:29:13.488Z,22.03
2019-03-10T04:31:41.457Z,26.53
2019-03-10T04:34:09.399Z,26.73
2019-03-10T04:36:37.315Z,24.17
2019-03-10T04:39:06.547Z,22.43
2019-03-10T04:41:34.731Z,23.07
2019-03-10T04:44:02.663Z,22.67
2019-03-10T04:46:30.627Z,27.60
2019-03-10T04:48:58.532Z,24.53
2019-03-10T04:51:26.457Z,24.27
2019-03-10T04:53:54.394Z,23.40
2019-03-10T04:56:41.407Z,25.50
2019-03-10T04:59:09.386Z,21.97
2019-03-10T05:01:37.300Z,29.33
2019-03-10T05:04:05.411Z,20.80
2019-03-10T05:06:33.361Z,26.63
2019-03-10T05:09:01.306Z,25.50
2019-03-10T05:11:29.278Z,24.17
2019-03-10T05:13:57.221Z,29.47
2019-03-10T05:16:25.950Z,19.93
2019-03-10T05:18:53.865Z,24.03
2019-03-10T05:21:21.837Z,18.27
2019-03-10T05:23:49.735Z,24.10
2019-03-10T05:26:17.736Z,26.17
2019-03-10T05:28:46.427Z,24.37
2019-03-10T05:31:14.478Z,16.47
2019-03-10T05:33:42.464Z,17.57
2019-03-10T05:36:10.377Z,27.17
2019-03-10T05:38:38.288Z,16.33
2019-03-10T05:41:06.316Z,21.57
2019-03-10T05:43:34.228Z,17.47
2019-03-10T05:46:02.137Z,25.97
2019-03-10T05:48:30.120Z,25.10
2019-03-10T05:50:58.308Z,28.17
2019-03-10T05:53:26.253Z,26.47
2019-03-10T05:55:55.877Z,19.77
2019-03-10T05:58:23.907Z,17.73
2019-03-10T06:00:51.846Z,22.23
2019-03-10T06:03:19.776Z,26.43
2019-03-10T06:05:47.712Z,25.37
2019-03-10T06:08:17.752Z,25.47
2019-03-10T06:10:48.658Z,18.03
2019-03-10T06:13:16.761Z,23.33
2019-03-10T06:15:44.719Z,16.60
2019-03-10T06:18:14.072Z,23.43
2019-03-10T06:20:42.288Z,24.53
2019-03-10T06:23:10.291Z,27.90
2019-03-10T06:25:38.242Z,30.03
2019-03-10T06:28:06.169Z,25.03
2019-03-10T06:30:34.532Z,27.43
2019-03-10T06:33:02.489Z,25.13
2019-03-10T06:35:30.569Z,27.73
2019-03-10T06:37:58.525Z,19.60
2019-03-10T06:40:32.173Z,19.10
2019-03-10T06:42:56.346Z,19.80
2019-03-10T06:45:24.263Z,21.53
2019-03-10T06:47:52.260Z,19.17
2019-03-10T06:50:20.618Z,24.93
2019-03-10T06:52:48.538Z,18.20
2019-03-10T06:55:16.538Z,26.17
2019-03-10T06:57:44.736Z,28.40
2019-03-10T07:00:12.798Z,25.70
2019-03-10T07:02:40.881Z,31.17
2019-03-10T07:05:09.523Z,20.43
2019-03-10T07:07:37.471Z,23.47
2019-03-10T07:10:06.055Z,17.60
2019-03-10T07:12:34.046Z,15.20
2019-03-10T07:15:01.968Z,24.73
2019-03-10T07:17:29.934Z,22.43
2019-03-10T07:19:57.955Z,19.23
2019-03-10T07:22:25.942Z,17.53
2019-03-10T07:24:53.922Z,15.13
2019-03-10T07:27:22.687Z,15.63
2019-03-10T07:29:58.196Z,17.13
2019-03-10T07:32:42.480Z,23.43
2019-03-10T07:35:38.849Z,21.83
2019-03-10T07:38:19.520Z,13.90
2019-03-10T07:40:54.219Z,12.20
2019-03-10T07:43:27.043Z,13.03
2019-03-10T07:46:20.391Z,12.10
2019-03-10T07:49:18.073Z,14.57
2019-03-10T07:52:20.268Z,13.10
2019-03-10T07:55:00.414Z,10.60
2019-03-10T07:58:02.703Z,10.40
2019-03-10T08:00:42.427Z,12.77
2019-03-10T08:03:29.461Z,8.87
2019-03-10T08:06:19.555Z,11.83
2019-03-10T08:09:09.549Z,10.80
2019-03-10T08:11:59.308Z,9.60
2019-03-10T08:14:57.206Z,13.40
2019-03-10T08:17:53.242Z,9.97
2019-03-10T08:20:49.264Z,11.87
2019-03-10T08:23:36.389Z,11.87
2019-03-10T08:26:22.554Z,10.17
2019-03-10T08:29:08.417Z,7.13
2019-03-10T08:31:54.735Z,7.40
2019-03-10T08:34:49.779Z,7.37
2019-03-10T08:37:35.538Z,12.43
2019-03-10T08:40:33.568Z,12.30
2019-03-10T08:43:35.926Z,8.93
2019-03-10T08:46:12.259Z,9.90
2019-03-10T08:49:02.387Z,14.13
2019-03-10T08:51:40.132Z,12.87
2019-03-10T08:54:27.153Z,12.50
2019-03-10T08:57:26.536Z,12.90
2019-03-10T09:00:16.590Z,14.17
2019-03-10T09:03:15.755Z,10.30
2019-03-10T09:06:05.822Z,8.80
2019-03-10T09:09:04.929Z,8.60
2019-03-10T09:12:05.874Z,9.57
2019-03-10T09:14:51.615Z,7.40
2019-03-10T09:17:41.592Z,6.73
2019-03-10T09:20:21.350Z,9.60
2019-03-10T09:23:06.141Z,6.07
2019-03-10T09:26:09.717Z,8.97
2019-03-10T09:28:56.244Z,5.20
2019-03-10T09:31:51.144Z,6.37
2019-03-10T09:34:36.813Z,6.33
2019-03-10T09:37:29.898Z,10.13
2019-03-10T09:40:16.444Z,7.03
2019-03-10T09:43:03.409Z,8.73
2019-03-10T09:46:06.323Z,12.97
2019-03-10T09:48:56.666Z,15.83
2019-03-10T09:51:31.171Z,23.23
2019-03-10T09:54:21.389Z,20.83
2019-03-10T09:57:20.644Z,29.13
2019-03-10T10:00:07.783Z,30.93
2019-03-10T10:03:00.674Z,40.53
2019-03-10T10:05:47.134Z,71.13
2019-03-10T10:08:23.450Z,87.97
2019-03-10T10:11:13.544Z,95.13
2019-03-10T10:13:49.379Z,116.90
2019-03-10T10:16:24.165Z,83.40
2019-03-10T10:19:17.131Z,99.90
2019-03-10T10:22:07.429Z,98.10
2019-03-10T10:24:45.094Z,82.67
2019-03-10T10:27:32.076Z,92.30
2019-03-10T10:30:14.217Z,84.57
2019-03-10T10:33:05.569Z,92.37
2019-03-10T10:35:52.763Z,84.63
2019-03-10T10:38:43.143Z,81.53
2019-03-10T10:41:32.991Z,94.57
2019-03-10T10:44:18.634Z,107.17
2019-03-10T10:46:56.968Z,115.23
2019-03-10T10:49:42.557Z,100.10
2019-03-10T10:52:23.721Z,94.20
2019-03-10T10:55:07.283Z,112.50
2019-03-10T10:57:43.723Z,88.87
2019-03-10T11:00:19.361Z,77.57
2019-03-10T11:03:02.150Z,87.63
2019-03-10T11:05:49.207Z,70.33
2019-03-10T11:08:36.318Z,70.53
2019-03-10T11:11:23.411Z,63.43
2019-03-10T11:13:59.892Z,70.20
2019-03-10T11:16:46.801Z,72.83
2019-03-10T11:19:32.692Z,70.60
2019-03-10T11:22:10.000Z,75.53
2019-03-10T11:24:58.777Z,62.87
2019-03-10T11:27:46.618Z,50.40
2019-03-10T11:30:50.012Z,50.60
2019-03-10T11:33:30.317Z,50.23
2019-03-10T11:36:26.278Z,56.37
2019-03-10T11:39:16.456Z,49.77
2019-03-10T11:41:50.012Z,64.07
2019-03-10T11:44:37.145Z,48.97
2019-03-10T11:47:27.511Z,43.17
2019-03-10T11:50:03.184Z,36.23
2019-03-10T11:52:39.352Z,44.97
2019-03-10T11:55:25.533Z,25.73
2019-03-10T11:58:07.054Z,27.47
2019-03-10T12:00:51.261Z,24.47
2019-03-10T12:03:29.346Z,27.40
2019-03-10T12:06:16.407Z,19.10
2019-03-10T12:09:06.724Z,14.00
2019-03-10T12:11:34.777Z,21.57
2019-03-10T12:14:02.746Z,20.37
2019-03-10T12:16:31.303Z,23.17
2019-03-10T12:19:00.648Z,18.10
2019-03-10T12:21:28.611Z,17.93
2019-03-10T12:23:56.587Z,19.83
2019-03-10T12:26:24.593Z,20.43
2019-03-10T12:28:52.615Z,21.10
2019-03-10T12:31:20.599Z,25.20
2019-03-10T12:33:48.557Z,21.33
2019-03-10T12:36:16.555Z,16.30
2019-03-10T12:38:44.564Z,17.00
2019-03-10T12:41:12.564Z,14.43
2019-03-10T12:43:40.555Z,15.13
2019-03-10T12:46:08.616Z,13.43
2019-03-10T12:48:39.572Z,13.83
2019-03-10T12:51:07.483Z,17.57
2019-03-10T12:53:35.602Z,14.67
2019-03-10T12:56:03.548Z,13.77
2019-03-10T12:58:31.516Z,12.87
2019-03-10T13:01:06.122Z,12.60
2019-03-10T13:03:29.246Z,12.73
2019-03-10T13:05:57.327Z,10.33
2019-03-10T13:08:25.417Z,15.87
2019-03-10T13:10:53.446Z,9.27
2019-03-10T13:13:21.391Z,12.63
2019-03-10T13:15:49.510Z,10.97
2019-03-10T13:18:17.554Z,8.40
2019-03-10T13:20:45.545Z,4.00
2019-03-10T13:23:14.106Z,5.17
2019-03-10T13:25:42.273Z,6.70
2019-03-10T13:28:11.202Z,8.73
2019-03-10T13:30:45.513Z,8.43
2019-03-10T13:33:13.508Z,6.53
2019-03-10T13:35:41.589Z,6.20
2019-03-10T13:38:10.651Z,6.13
2019-03-10T13:40:39.473Z,4.97
2019-03-10T13:43:07.561Z,3.80
2019-03-10T13:45:37.981Z,3.33
2019-03-10T13:48:06.066Z,4.50
2019-03-10T13:50:34.082Z,6.20
2019-03-10T13:53:02.055Z,6.77
2019-03-10T13:55:31.572Z,5.23
2019-03-10T13:57:59.764Z,8.07
2019-03-10T14:00:27.749Z,4.17
2019-03-10T14:02:55.804Z,7.47
2019-03-10T14:05:24.019Z,3.73
2019-03-10T14:07:52.217Z,3.87
2019-03-10T14:10:20.186Z,4.80
2019-03-10T14:12:48.164Z,3.23
2019-03-10T14:15:16.187Z,7.03
2019-03-10T14:17:44.156Z,3.43
2019-03-10T14:20:12.266Z,3.67
2019-03-10T14:22:40.306Z,4.00
2019-03-10T14:25:08.251Z,7.57
2019-03-10T14:27:36.275Z,3.30
2019-03-10T14:30:04.993Z,5.87
2019-03-10T14:32:33.003Z,4.07
2019-03-10T14:35:00.964Z,4.37
2019-03-10T14:37:29.267Z,6.83
2019-03-10T14:39:57.336Z,6.07
2019-03-10T14:42:25.309Z,6.30
2019-03-10T14:44:53.345Z,5.30
2019-03-10T14:47:21.386Z,5.13
2019-03-10T14:49:49.469Z,4.33
2019-03-10T14:52:17.557Z,4.77
2019-03-10T14:54:46.730Z,5.27
2019-03-10T14:57:14.722Z,6.73
2019-03-10T14:59:42.744Z,7.27
2019-03-10T15:02:11.147Z,6.97
2019-03-10T15:04:39.123Z,4.07
2019-03-10T15:07:07.111Z,5.20
2019-03-10T15:09:35.052Z,8.43
2019-03-10T15:12:03.067Z,6.63
2019-03-10T15:14:31.014Z,6.87
2019-03-10T15:17:01.835Z,4.37
2019-03-10T15:19:28.922Z,4.40
2019-03-10T15:21:56.979Z,4.63
2019-03-10T15:24:24.948Z,4.80
2019-03-10T15:26:53.030Z,12.30
2019-03-10T15:29:20.991Z,3.80
2019-03-10T15:31:48.920Z,5.00
2019-03-10T15:34:16.903Z,3.47
2019-03-10T15:36:44.864Z,2.90
2019-03-10T15:39:12.812Z,6.00
2019-03-10T15:41:40.774Z,4.90
2019-03-10T15:44:10.335Z,4.80
2019-03-10T15:46:39.125Z,5.87
2019-03-10T15:49:07.248Z,6.93
2019-03-10T15:51:35.314Z,6.77
2019-03-10T15:54:05.694Z,6.67
2019-03-10T15:56:34.351Z,4.83
2019-03-10T15:59:03.041Z,4.07
2019-03-10T16:01:31.135Z,6.53
2019-03-10T16:04:04.115Z,4.03
2019-03-10T16:06:31.449Z,15.53
2019-03-10T16:08:59.638Z,7.33
2019-03-10T16:11:27.658Z,6.60
2019-03-10T16:13:55.727Z,8.13
2019-03-10T16:16:25.309Z,6.10
2019-03-10T16:18:53.415Z,9.80
2019-03-10T16:21:21.377Z,12.10
2019-03-10T16:23:49.474Z,11.20
2019-03-10T16:26:17.453Z,16.10
2019-03-10T16:28:47.075Z,11.13
2019-03-10T16:31:15.041Z,11.83
2019-03-10T16:33:43.133Z,11.90
2019-03-10T16:36:12.307Z,9.10
2019-03-10T16:38:40.679Z,6.07
2019-03-10T16:41:08.800Z,4.80
2019-03-10T16:43:37.792Z,4.03
2019-03-10T16:46:05.826Z,10.07
2019-03-10T16:48:34.345Z,6.57
2019-03-10T16:51:02.370Z,6.57
2019-03-10T16:53:30.563Z,6.97
2019-03-10T16:56:03.214Z,8.13
2019-03-10T16:58:31.391Z,7.67
2019-03-10T17:00:59.676Z,9.17
2019-03-10T17:03:27.686Z,13.27
2019-03-10T17:05:55.720Z,10.03
2019-03-10T17:08:23.784Z,11.67
2019-03-10T17:10:52.170Z,9.10
2019-03-10T17:13:20.149Z,7.93
2019-03-10T17:15:48.103Z,11.40
2019-03-10T17:18:16.118Z,15.40
2019-03-10T17:20:44.069Z,12.17
2019-03-10T17:23:12.064Z,12.77
2019-03-10T17:25:40.877Z,9.17
2019-03-10T17:28:08.826Z,12.13
2019-03-10T17:30:37.096Z,9.07
2019-03-10T17:33:05.230Z,10.43
2019-03-10T17:35:34.199Z,10.57
2019-03-10T17:38:02.117Z,12.47
2019-03-10T17:40:30.065Z,16.30
2019-03-10T17:42:58.070Z,16.43
2019-03-10T17:45:26.202Z,9.60
2019-03-10T17:47:54.195Z,10.10
2019-03-10T17:50:22.311Z,13.00
2019-03-10T17:52:50.593Z,13.57
2019-03-10T17:55:18.591Z,12.77
2019-03-10T17:57:46.958Z,11.87
2019-03-10T18:00:16.529Z,12.37
2019-03-10T18:02:44.606Z,13.73
2019-03-10T18:05:12.696Z,11.40
2019-03-10T18:07:40.690Z,6.53
2019-03-10T18:10:09.263Z,7.27
2019-03-10T18:12:37.218Z,5.17
2019-03-10T18:15:08.912Z,11.60
2019-03-10T18:17:36.300Z,6.87
2019-03-10T18:20:04.427Z,9.03
2019-03-10T18:22:32.426Z,9.87
2019-03-10T18:25:00.548Z,15.63
2019-03-10T18:27:28.757Z,11.47
2019-03-10T18:29:56.904Z,16.10
2019-03-10T18:32:25.099Z,15.80
2019-03-10T18:34:53.096Z,16.80
2019-03-10T18:37:21.066Z,17.17
2019-03-10T18:39:49.212Z,15.10
2019-03-10T18:42:17.200Z,15.23
2019-03-10T18:44:45.148Z,11.97
2019-03-10T18:47:13.053Z,14.37
2019-03-10T18:49:40.952Z,15.00
2019-03-10T18:52:08.999Z,21.73
2019-03-10T18:54:37.145Z,11.33
2019-03-10T18:57:05.067Z,17.27
2019-03-10T18:59:32.958Z,15.67
2019-03-10T19:02:00.898Z,14.83
2019-03-10T19:04:28.848Z,12.07
2019-03-10T19:06:56.801Z,14.87
2019-03-10T19:09:27.892Z,25.43
2019-03-10T19:11:56.116Z,10.70
2019-03-10T19:14:24.918Z,11.60
2019-03-10T19:16:52.920Z,12.00
2019-03-10T19:19:20.903Z,10.50
2019-03-10T19:21:48.878Z,6.77
2019-03-10T19:24:16.818Z,12.43
2019-03-10T19:26:44.741Z,8.80
2019-03-10T19:29:12.868Z,13.30
2019-03-10T19:31:40.814Z,12.60
2019-03-10T19:34:08.791Z,13.03
2019-03-10T19:36:36.697Z,17.47
2019-03-10T19:39:06.323Z,12.73
2019-03-10T19:41:34.226Z,10.70
2019-03-10T19:44:02.224Z,13.07
2019-03-10T19:46:30.223Z,10.30
2019-03-10T19:48:59.076Z,12.43
2019-03-10T19:51:27.052Z,11.90
2019-03-10T19:53:55.533Z,11.90
2019-03-10T19:56:23.576Z,10.53
2019-03-10T19:58:51.533Z,15.90
2019-03-10T20:01:19.464Z,15.77
2019-03-10T20:03:47.376Z,23.23
2019-03-10T20:06:15.301Z,15.77
2019-03-10T20:08:43.236Z,12.87
2019-03-10T20:11:11.153Z,13.33
2019-03-10T20:13:39.275Z,15.87
2019-03-10T20:16:07.502Z,10.10
2019-03-10T20:18:35.419Z,9.10
2019-03-10T20:21:03.389Z,7.50
2019-03-10T20:23:31.542Z,12.80
2019-03-10T20:25:59.640Z,11.93
2019-03-10T20:28:27.600Z,13.13
2019-03-10T20:30:55.540Z,11.57
2019-03-10T20:33:23.950Z,17.80
2019-03-10T20:35:52.087Z,10.23
2019-03-10T20:38:20.141Z,7.80
2019-03-10T20:40:48.212Z,10.67
2019-03-10T20:43:16.446Z,10.77
2019-03-10T20:45:44.777Z,7.53
2019-03-10T20:48:12.735Z,10.47
2019-03-10T20:50:40.843Z,11.47
2019-03-10T20:53:08.878Z,13.93
2019-03-10T20:55:36.816Z,11.30
2019-03-10T20:58:04.891Z,15.10
2019-03-10T21:00:32.995Z,15.00
2019-03-10T21:03:01.035Z,15.53
2019-03-10T21:05:29.049Z,11.20
2019-03-10T21:07:57.099Z,10.87
2019-03-10T21:10:25.139Z,14.50
2019-03-10T21:12:53.421Z,15.27
2019-03-10T21:15:21.604Z,10.50
2019-03-10T21:17:49.676Z,10.03
2019-03-10T21:20:17.919Z,11.80
2019-03-10T21:22:46.404Z,10.50
2019-03-10T21:25:15.764Z,7.47
2019-03-10T21:27:43.951Z,10.60
2019-03-10T21:30:15.963Z,10.83
2019-03-10T21:32:44.024Z,9.13
2019-03-10T21:35:17.518Z,11.63
2019-03-10T21:37:41.755Z,13.43
2019-03-10T21:40:14.069Z,7.40
2019-03-10T21:42:42.036Z,10.30
2019-03-10T21:45:10.263Z,8.53
2019-03-10T21:47:39.731Z,9.73
2019-03-10T21:50:08.783Z,11.63
2019-03-10T21:52:36.682Z,11.97
2019-03-10T21:55:05.347Z,13.50
2019-03-10T21:57:35.146Z,13.13
2019-03-10T22:00:03.582Z,19.67
2019-03-10T22:02:31.556Z,9.73
2019-03-10T22:04:59.521Z,16.50
2019-03-10T22:07:27.700Z,6.83
2019-03-10T22:09:55.972Z,10.00
2019-03-10T22:12:23.990Z,11.87
2019-03-10T22:14:51.934Z,8.33
2019-03-10T22:17:19.881Z,8.03
2019-03-10T22:19:47.895Z,7.33
2019-03-10T22:22:15.860Z,9.60
2019-03-10T22:24:43.783Z,12.87
2019-03-10T22:27:11.785Z,12.20
2019-03-10T22:29:39.690Z,8.30
2019-03-10T22:32:07.586Z,8.53
2019-03-10T22:34:35.527Z,10.87
2019-03-10T22:37:03.424Z,11.07
2019-03-10T22:39:31.384Z,16.27
2019-03-10T22:41:59.426Z,10.97
2019-03-10T22:44:27.810Z,6.87
2019-03-10T22:46:55.776Z,8.83
2019-03-10T22:49:24.013Z,12.50
2019-03-10T22:51:52.223Z,8.77
2019-03-10T22:54:20.188Z,12.60
2019-03-10T22:56:50.479Z,7.90
2019-03-10T22:59:18.060Z,8.53
2019-03-10T23:01:45.960Z,11.73
2019-03-10T23:04:13.891Z,16.70
2019-03-10T23:06:41.870Z,13.97
2019-03-10T23:09:10.101Z,10.20
2019-03-10T23:11:38.038Z,9.20
2019-03-10T23:14:06.115Z,10.70
2019-03-10T23:16:34.006Z,9.63
2019-03-10T23:19:01.969Z,8.00
2019-03-10T23:21:29.854Z,9.43
2019-03-10T23:23:57.896Z,12.63
2019-03-10T23:26:25.811Z,8.33
2019-03-10T23:28:53.795Z,10.90
2019-03-10T23:31:21.798Z,10.93
2019-03-10T23:33:49.739Z,8.63
2019-03-10T23:36:17.648Z,11.97
2019-03-10T23:38:48.660Z,14.40
2019-03-10T23:41:16.619Z,8.43
2019-03-10T23:43:44.548Z,9.83
2019-03-10T23:46:12.442Z,15.23
2019-03-10T23:48:40.417Z,8.73
2019-03-10T23:51:08.400Z,8.13
2019-03-10T23:53:36.370Z,10.67
2019-03-10T23:56:04.315Z,12.13
2019-03-10T23:58:32.205Z,9.63
